Time;durP1;ratioP1;P1;durP2;ratioP2;P2;SDS_P1;SDS_P2;PMS_P1;PMS_P2;Temp;Humidity;BMP_temperature;BMP_pressure;BME280_temperature;BME280_humidity;BME280_pressure;Samples;Min_cycle;Max_cycle;Signal;HPM_P1;HPM_P2
2023/05/30 00:01:51;;;;;;;6.63;4.00;;;;;;;17.12;45.43;96357.19;5008222;28;20873;-69
2023/05/30 00:04:17;;;;;;;5.83;4.07;;;;;;;17.13;45.51;96369.53;5007732;28;20227;-69
2023/05/30 00:06:43;;;;;;;5.70;4.67;;;;;;;16.93;46.22;96377.03;5007930;28;20196;-69
2023/05/30 00:09:09;;;;;;;4.10;3.70;;;;;;;17.04;46.34;96376.31;5007577;28;20411;-69
2023/05/30 00:11:35;;;;;;;6.13;4.93;;;;;;;17.12;46.16;96378.41;5007801;28;20430;-69
2023/05/30 00:14:00;;;;;;;7.47;4.30;;;;;;;17.10;45.70;96375.88;5007618;28;20172;-69
2023/05/30 00:16:27;;;;;;;4.60;4.20;;;;;;;16.99;46.06;96377.59;5007585;28;21081;-69
2023/05/30 00:18:53;;;;;;;12.43;5.37;;;;;;;16.93;46.39;96371.75;5007390;28;20172;-70
2023/05/30 00:21:20;;;;;;;5.60;4.50;;;;;;;16.85;46.08;96381.19;5007677;28;20411;-68
2023/05/30 00:23:46;;;;;;;5.57;4.33;;;;;;;16.90;46.48;96384.38;5006835;28;20467;-69
2023/05/30 00:26:12;;;;;;;8.17;5.10;;;;;;;16.93;46.01;96378.84;5007570;28;20479;-69
2023/05/30 00:28:38;;;;;;;4.93;4.40;;;;;;;16.78;46.66;96388.69;5007632;28;20412;-69
2023/05/30 00:31:05;;;;;;;5.60;4.47;;;;;;;16.78;46.27;96394.00;5007654;28;20455;-69
2023/05/30 00:33:31;;;;;;;4.70;3.83;;;;;;;16.63;46.94;96401.19;5007479;28;20420;-69
2023/05/30 00:35:56;;;;;;;8.07;4.60;;;;;;;16.55;46.55;96395.56;5021645;28;20407;-70
2023/05/30 00:38:22;;;;;;;6.97;4.17;;;;;;;16.57;46.54;96391.00;5023982;28;20192;-70
2023/05/30 00:40:47;;;;;;;5.20;4.70;;;;;;;16.48;46.63;96399.56;5018056;28;20206;-69
2023/05/30 00:43:14;;;;;;;4.80;4.03;;;;;;;16.64;46.56;96384.34;5013091;28;20176;-69
2023/05/30 00:45:40;;;;;;;4.90;4.40;;;;;;;16.54;46.86;96393.88;5007809;28;20176;-69
2023/05/30 00:48:05;;;;;;;6.70;4.00;;;;;;;16.69;46.06;96406.06;5007225;28;20426;-69
2023/05/30 00:50:33;;;;;;;5.83;4.10;;;;;;;16.76;46.02;96395.06;4989043;28;20199;-70
2023/05/30 00:52:59;;;;;;;8.53;3.80;;;;;;;16.87;45.92;96392.56;4987568;28;20176;-68
2023/05/30 00:55:26;;;;;;;6.33;4.50;;;;;;;16.49;46.65;96386.22;4987100;28;20408;-69
2023/05/30 00:57:52;;;;;;;5.07;4.57;;;;;;;16.60;46.45;96397.91;4987135;28;20436;-69
2023/05/30 01:00:18;;;;;;;6.70;5.67;;;;;;;16.50;47.15;96395.03;4987206;28;20427;-70
2023/05/30 01:02:44;;;;;;;5.97;4.70;;;;;;;16.67;46.77;96393.88;4987281;28;20173;-69
2023/05/30 01:05:12;;;;;;;7.27;4.97;;;;;;;16.65;46.18;96391.34;4986537;28;20563;-68
2023/05/30 01:07:41;;;;;;;7.87;4.47;;;;;;;16.68;46.41;96399.06;4987070;28;20809;-69
2023/05/30 01:10:07;;;;;;;5.43;4.40;;;;;;;16.72;46.59;96392.63;4987131;28;21120;-69
2023/05/30 01:12:37;;;;;;;5.13;3.97;;;;;;;16.85;45.69;96400.59;4987269;28;20466;-69
2023/05/30 01:15:18;;;;;;;7.10;5.40;;;;;;;16.68;46.37;96396.44;4986767;28;20401;-69
2023/05/30 01:18:24;;;;;;;7.03;4.43;;;;;;;16.39;47.22;96400.19;4987064;28;20764;-69
2023/05/30 01:20:59;;;;;;;7.10;4.37;;;;;;;16.43;46.83;96399.88;4992307;28;20523;-69
2023/05/30 01:23:47;;;;;;;6.27;4.77;;;;;;;16.48;46.66;96388.97;4986383;28;20490;-70
2023/05/30 01:26:49;;;;;;;5.00;4.30;;;;;;;16.38;46.92;96387.91;4985625;28;20525;-69
2023/05/30 01:29:20;;;;;;;10.20;4.40;;;;;;;16.42;46.86;96394.72;4989349;28;20424;-69
2023/05/30 01:31:46;;;;;;;7.97;4.73;;;;;;;16.42;47.04;96389.41;4986761;28;20418;-69
2023/05/30 01:34:15;;;;;;;5.87;4.47;;;;;;;16.23;47.31;96385.34;4986119;28;20404;-69
2023/05/30 01:36:40;;;;;;;5.73;4.40;;;;;;;16.35;47.26;96385.47;4986743;28;21016;-69
2023/05/30 01:39:07;;;;;;;5.13;4.53;;;;;;;16.46;47.11;96380.28;4986569;28;20412;-70
2023/05/30 01:41:58;;;;;;;6.67;4.33;;;;;;;16.19;47.50;96386.50;4986729;28;20181;-69
2023/05/30 01:44:36;;;;;;;5.77;4.20;;;;;;;16.15;47.72;96376.19;4988322;28;20540;-69
2023/05/30 01:47:11;;;;;;;5.03;4.10;;;;;;;16.09;47.60;96380.13;4986475;28;20427;-69
2023/05/30 01:49:49;;;;;;;6.40;4.60;;;;;;;16.16;47.72;96377.88;4996829;28;20502;-71
2023/05/30 01:52:20;;;;;;;7.70;4.83;;;;;;;16.17;47.47;96379.59;5006010;28;20403;-69
2023/05/30 01:54:54;;;;;;;7.27;4.63;;;;;;;16.03;47.91;96375.22;5005925;28;20438;-67
2023/05/30 01:57:20;;;;;;;7.40;4.57;;;;;;;16.09;47.86;96372.19;5005919;28;20427;-68
2023/05/30 01:59:47;;;;;;;5.07;4.43;;;;;;;16.06;48.01;96377.66;5005760;28;20896;-68
2023/05/30 02:02:12;;;;;;;9.17;5.33;;;;;;;16.04;47.83;96382.22;5005840;28;20408;-69
2023/05/30 02:04:38;;;;;;;6.77;5.50;;;;;;;15.96;48.36;96388.00;5005527;28;20461;-68
2023/05/30 02:07:04;;;;;;;8.07;5.00;;;;;;;16.12;47.77;96381.72;5005661;28;20196;-69
2023/05/30 02:09:30;;;;;;;6.30;5.23;;;;;;;16.00;48.38;96380.72;5005204;28;20255;-70
2023/05/30 02:11:55;;;;;;;8.07;5.63;;;;;;;16.02;47.95;96386.78;5005566;28;20180;-70
2023/05/30 02:14:24;;;;;;;5.47;4.90;;;;;;;15.86;48.66;96377.16;5005417;28;20649;-69
2023/05/30 02:16:50;;;;;;;5.47;4.57;;;;;;;15.77;48.87;96382.22;5005662;28;20195;-69
2023/05/30 02:19:15;;;;;;;6.03;4.97;;;;;;;15.94;48.68;96386.41;5005652;28;20403;-71
2023/05/30 02:21:41;;;;;;;6.17;4.80;;;;;;;15.85;48.87;96375.50;5005588;28;20180;-68
2023/05/30 02:24:07;;;;;;;7.30;4.43;;;;;;;15.82;48.46;96380.97;5005254;28;20207;-69
2023/05/30 02:26:36;;;;;;;8.27;5.90;;;;;;;15.88;48.78;96375.28;5005424;28;20196;-69
2023/05/30 02:29:01;;;;;;;8.50;4.50;;;;;;;15.54;49.75;96383.66;5005496;28;20506;-68
2023/05/30 02:31:27;;;;;;;6.13;5.53;;;;;;;15.44;50.03;96383.41;5005463;28;20450;-68
2023/05/30 02:33:52;;;;;;;6.57;5.20;;;;;;;15.57;49.66;96381.69;5004947;28;20848;-67
2023/05/30 02:36:18;;;;;;;6.73;4.73;;;;;;;15.55;49.69;96382.72;5005095;28;20628;-67
2023/05/30 02:38:43;;;;;;;5.63;4.77;;;;;;;15.44;50.04;96378.94;5005285;28;20195;-68
2023/05/30 02:41:08;;;;;;;11.97;6.47;;;;;;;15.46;50.13;96378.88;5005060;28;20176;-69
2023/05/30 02:43:34;;;;;;;8.47;5.10;;;;;;;15.39;50.27;96383.69;5005070;28;20227;-68
2023/05/30 02:46:01;;;;;;;5.80;4.70;;;;;;;15.45;50.35;96387.75;5004974;28;20190;-68
2023/05/30 02:48:26;;;;;;;6.07;5.23;;;;;;;15.46;50.10;96387.66;5004730;28;20204;-68
2023/05/30 02:50:52;;;;;;;5.87;5.20;;;;;;;15.65;49.49;96382.03;5005134;28;20411;-69
2023/05/30 02:53:17;;;;;;;8.67;5.67;;;;;;;15.25;50.86;96392.50;5005073;28;20164;-69
2023/05/30 02:55:42;;;;;;;13.10;5.20;;;;;;;15.58;49.84;96386.00;5004926;28;20176;-69
2023/05/30 02:58:14;;;;;;;7.03;5.50;;;;;;;15.57;49.82;96378.19;5005138;28;20266;-69
2023/05/30 03:00:40;;;;;;;9.60;4.70;;;;;;;15.56;50.04;96389.69;5005231;28;20695;-68
2023/05/30 03:03:08;;;;;;;8.63;5.63;;;;;;;15.63;49.70;96385.72;5005046;28;20403;-69
2023/05/30 03:05:34;;;;;;;6.30;4.77;;;;;;;15.74;49.47;96377.13;5004763;28;20203;-66
2023/05/30 03:08:00;;;;;;;8.57;5.50;;;;;;;15.51;50.50;96386.50;5005060;28;20449;-69
2023/05/30 03:10:25;;;;;;;8.00;6.10;;;;;;;15.25;50.96;96379.28;5004851;28;21226;-69
2023/05/30 03:12:51;;;;;;;10.80;4.70;;;;;;;15.43;50.38;96379.06;5004878;28;20176;-68
2023/05/30 03:15:17;;;;;;;11.73;5.53;;;;;;;15.62;50.13;96379.59;5004497;28;20196;-68
2023/05/30 03:17:42;;;;;;;7.97;5.20;;;;;;;15.59;50.31;96381.56;5004830;28;20214;-68
2023/05/30 03:20:08;;;;;;;7.90;5.40;;;;;;;15.44;50.33;96386.03;5004904;28;20165;-68
2023/05/30 03:22:34;;;;;;;6.93;5.63;;;;;;;15.34;50.89;96382.28;5006361;28;20242;-69
2023/05/30 03:25:00;;;;;;;6.60;4.97;;;;;;;15.22;51.15;96383.91;5008362;28;20971;-69
2023/05/30 03:27:25;;;;;;;14.10;5.47;;;;;;;15.22;51.26;96383.91;5008613;28;20655;-69
2023/05/30 03:29:52;;;;;;;6.57;4.47;;;;;;;15.22;51.14;96389.19;5008468;28;20207;-67
2023/05/30 03:32:18;;;;;;;7.43;5.10;;;;;;;15.23;51.53;96396.19;5008631;28;20183;-69
2023/05/30 03:34:45;;;;;;;15.53;5.33;;;;;;;15.32;51.28;96398.25;5008193;28;21182;-69
2023/05/30 03:37:10;;;;;;;13.77;5.30;;;;;;;15.31;51.28;96387.78;5008349;28;20196;-69
2023/05/30 03:39:36;;;;;;;8.37;5.20;;;;;;;15.18;51.76;96393.81;5008295;28;20971;-69
2023/05/30 03:42:01;;;;;;;9.30;5.10;;;;;;;15.19;51.78;96392.91;5008317;28;20176;-70
2023/05/30 03:44:27;;;;;;;6.10;4.73;;;;;;;15.27;51.39;96389.75;5007980;28;20207;-68
2023/05/30 03:46:52;;;;;;;9.07;5.27;;;;;;;15.33;51.14;96391.16;5007986;28;20200;-69
2023/05/30 03:49:18;;;;;;;6.40;4.50;;;;;;;15.28;51.25;96386.16;5007938;28;20176;-69
2023/05/30 03:51:43;;;;;;;14.10;5.63;;;;;;;15.46;51.17;96392.94;5008403;28;20267;-69
2023/05/30 03:54:08;;;;;;;5.93;5.00;;;;;;;15.44;51.20;96396.63;5007648;28;20570;-69
2023/05/30 03:56:34;;;;;;;17.47;6.00;;;;;;;15.46;51.22;96398.22;5008018;28;20292;-68
2023/05/30 03:59:00;;;;;;;11.93;5.20;;;;;;;15.30;51.27;96392.19;5007492;28;20259;-70
2023/05/30 04:01:25;;;;;;;7.80;5.40;;;;;;;15.41;51.56;96391.53;5008121;28;20255;-69
2023/05/30 04:03:50;;;;;;;8.50;5.80;;;;;;;15.30;51.92;96396.66;5007355;28;20287;-70
2023/05/30 04:06:17;;;;;;;6.53;4.70;;;;;;;15.60;50.70;96404.44;5007734;28;20246;-69
2023/05/30 04:08:42;;;;;;;9.40;5.43;;;;;;;15.49;51.21;96396.34;5007779;28;20180;-69
2023/05/30 04:11:08;;;;;;;9.60;5.77;;;;;;;15.55;51.23;96402.09;5006240;28;20430;-68
2023/05/30 04:13:34;;;;;;;8.07;5.63;;;;;;;15.50;51.50;96401.53;5007614;28;20858;-69
2023/05/30 04:16:00;;;;;;;5.80;4.67;;;;;;;15.30;51.76;96405.41;5007633;28;20286;-67
2023/05/30 04:18:26;;;;;;;8.60;5.57;;;;;;;15.61;51.15;96409.66;5007497;28;20490;-69
2023/05/30 04:20:51;;;;;;;8.40;5.27;;;;;;;15.57;50.79;96418.72;5007788;28;20178;-70
2023/05/30 04:23:17;;;;;;;8.37;4.77;;;;;;;15.58;51.35;96419.56;5007114;28;20657;-69
2023/05/30 04:25:44;;;;;;;10.90;5.23;;;;;;;15.63;51.17;96420.94;5007292;28;20183;-69
2023/05/30 04:28:12;;;;;;;20.50;5.97;;;;;;;15.80;50.55;96425.22;5006945;28;20196;-69
2023/05/30 04:30:38;;;;;;;19.10;6.20;;;;;;;15.84;50.71;96423.22;5007178;28;20905;-68
2023/05/30 04:33:04;;;;;;;7.60;4.60;;;;;;;15.43;51.76;96419.59;5006634;28;20415;-68
2023/05/30 04:35:32;;;;;;;6.30;5.23;;;;;;;15.90;50.46;96414.88;5007871;28;20176;-69
2023/05/30 04:37:58;;;;;;;9.07;5.13;;;;;;;16.12;49.56;96427.56;5028960;28;20497;-70
2023/05/30 04:40:25;;;;;;;6.80;4.77;;;;;;;16.19;49.62;96426.19;5022484;28;20760;-69
2023/05/30 04:42:51;;;;;;;6.00;5.37;;;;;;;16.15;49.75;96423.84;5010466;28;20176;-68
2023/05/30 04:45:18;;;;;;;7.70;5.03;;;;;;;16.34;49.56;96437.56;5011696;28;20506;-69
2023/05/30 04:47:45;;;;;;;10.57;5.23;;;;;;;16.51;48.66;96432.00;5007757;28;20529;-70
2023/05/30 04:50:11;;;;;;;7.50;5.40;;;;;;;16.67;48.45;96428.31;5005608;28;20503;-69
2023/05/30 04:52:37;;;;;;;6.47;4.90;;;;;;;16.62;48.28;96431.28;5005742;28;20923;-67
2023/05/30 04:55:02;;;;;;;6.37;5.50;;;;;;;16.54;49.17;96435.41;5004080;28;20423;-69
2023/05/30 04:57:28;;;;;;;8.20;4.87;;;;;;;16.32;49.73;96435.97;5004438;28;20219;-69
2023/05/30 04:59:53;;;;;;;7.13;5.00;;;;;;;16.26;49.70;96435.44;5004261;28;20172;-67
2023/05/30 05:02:18;;;;;;;6.70;5.43;;;;;;;16.41;49.12;96438.84;5002042;28;20192;-70
2023/05/30 05:04:44;;;;;;;6.80;5.33;;;;;;;16.22;49.85;96443.69;5003803;28;20220;-69
2023/05/30 05:07:09;;;;;;;6.17;5.13;;;;;;;16.23;50.21;96442.75;5004048;28;20259;-69
2023/05/30 05:09:35;;;;;;;8.93;5.83;;;;;;;16.26;50.25;96445.19;5003517;28;20660;-70
2023/05/30 05:12:01;;;;;;;9.13;6.10;;;;;;;16.21;50.26;96456.09;5003310;28;20184;-70
2023/05/30 05:14:26;;;;;;;8.00;5.10;;;;;;;16.33;50.10;96453.59;5001304;28;20259;-69
2023/05/30 05:16:52;;;;;;;10.03;6.43;;;;;;;15.82;51.26;96454.22;5003436;28;20203;-69
2023/05/30 05:19:17;;;;;;;6.10;5.50;;;;;;;16.04;51.27;96456.34;5002444;28;20192;-69
2023/05/30 05:21:42;;;;;;;6.20;4.83;;;;;;;16.24;50.58;96455.03;5003270;28;20890;-69
2023/05/30 05:24:08;;;;;;;8.07;5.83;;;;;;;15.88;51.03;96454.66;5002659;28;20212;-68
2023/05/30 05:26:34;;;;;;;9.97;5.27;;;;;;;16.28;50.24;96452.06;5002937;28;20200;-73
2023/05/30 05:29:00;;;;;;;12.67;5.67;;;;;;;16.28;50.23;96453.88;5003496;28;20216;-72
2023/05/30 05:31:26;;;;;;;7.27;5.67;;;;;;;16.26;50.68;96447.84;5003127;28;20242;-72
2023/05/30 05:33:51;;;;;;;9.60;6.27;;;;;;;16.43;50.09;96452.00;5002409;28;20184;-73
2023/05/30 05:36:18;;;;;;;13.60;7.27;;;;;;;16.33;50.45;96461.53;5002747;28;20176;-72
2023/05/30 05:38:43;;;;;;;8.90;5.50;;;;;;;16.07;51.11;96453.50;5002124;28;21308;-70
2023/05/30 05:41:09;;;;;;;6.77;5.40;;;;;;;16.42;50.22;96447.69;5002578;28;20467;-71
2023/05/30 05:43:35;;;;;;;9.60;4.80;;;;;;;16.47;50.17;96453.50;5003110;28;20179;-71
2023/05/30 05:46:01;;;;;;;10.30;5.80;;;;;;;16.60;49.61;96450.88;5001382;28;20192;-71
2023/05/30 05:48:26;;;;;;;9.03;5.60;;;;;;;16.71;49.13;96451.00;5000949;28;20447;-74
2023/05/30 05:50:52;;;;;;;12.43;5.33;;;;;;;16.98;48.76;96450.94;5001498;28;20213;-74
2023/05/30 05:53:17;;;;;;;7.37;6.37;;;;;;;17.07;48.32;96458.28;5002770;28;20383;-73
2023/05/30 05:55:44;;;;;;;8.73;5.43;;;;;;;16.52;50.07;96454.06;5002465;28;20195;-71
2023/05/30 05:58:10;;;;;;;10.60;6.20;;;;;;;16.50;49.94;96459.44;5002296;28;20200;-72
2023/05/30 06:00:36;;;;;;;9.10;6.00;;;;;;;16.47;49.85;96461.47;5002399;28;20530;-72
2023/05/30 06:03:02;;;;;;;7.47;4.83;;;;;;;16.76;49.76;96456.00;5002225;28;20514;-72
2023/05/30 06:05:27;;;;;;;9.50;5.60;;;;;;;16.89;49.06;96463.06;5002180;28;20550;-70
2023/05/30 06:07:55;;;;;;;7.10;5.97;;;;;;;16.82;49.49;96472.38;5002562;28;20881;-71
2023/05/30 06:10:20;;;;;;;9.60;5.20;;;;;;;16.86;49.41;96475.66;5002337;28;20208;-70
2023/05/30 06:12:45;;;;;;;12.40;5.70;;;;;;;17.00;48.94;96475.56;5002552;28;20509;-72
2023/05/30 06:15:12;;;;;;;7.30;5.03;;;;;;;17.35;48.20;96469.63;4999193;28;20487;-69
2023/05/30 06:17:38;;;;;;;8.63;6.07;;;;;;;17.75;47.36;96472.97;4997064;28;20200;-70
2023/05/30 06:20:06;;;;;;;8.97;5.50;;;;;;;17.44;47.76;96473.44;5001544;28;20435;-69
2023/05/30 06:22:32;;;;;;;7.47;5.17;;;;;;;17.44;47.96;96466.34;5007041;28;20187;-70
2023/05/30 06:24:57;;;;;;;8.10;6.07;;;;;;;18.09;46.86;96472.38;5009824;28;20501;-71
2023/05/30 06:27:23;;;;;;;10.20;5.60;;;;;;;18.08;46.45;96481.31;5003436;28;20223;-70
2023/05/30 06:29:48;;;;;;;6.33;5.70;;;;;;;18.03;46.19;96475.47;5002995;28;20983;-71
2023/05/30 06:32:15;;;;;;;10.10;6.57;;;;;;;17.98;45.96;96474.00;5003228;28;20188;-70
2023/05/30 06:34:40;;;;;;;8.60;5.50;;;;;;;18.04;46.31;96477.16;5002967;28;20183;-71
2023/05/30 06:37:05;;;;;;;6.50;5.13;;;;;;;18.20;45.35;96485.72;5003086;28;20427;-74
2023/05/30 06:39:31;;;;;;;7.63;5.70;;;;;;;18.03;46.21;96484.28;5003399;28;20255;-70
2023/05/30 06:41:56;;;;;;;19.63;6.47;;;;;;;18.12;45.67;96486.28;5005018;28;20188;-72
2023/05/30 06:44:22;;;;;;;9.57;5.93;;;;;;;18.13;46.17;96493.28;5002623;28;20246;-70
2023/05/30 06:46:47;;;;;;;17.50;6.13;;;;;;;18.04;46.03;96493.09;5003423;28;20258;-68
2023/05/30 06:49:13;;;;;;;18.40;6.70;;;;;;;18.35;45.39;96497.00;4999550;28;20183;-69
2023/05/30 06:51:38;;;;;;;13.03;7.83;;;;;;;18.25;45.56;96491.53;4996535;28;21018;-68
2023/05/30 06:54:04;;;;;;;11.13;5.90;;;;;;;18.39;45.23;96504.66;5003006;28;20176;-72
2023/05/30 06:56:29;;;;;;;14.63;6.40;;;;;;;18.40;44.83;96506.38;5006694;28;20648;-69
2023/05/30 06:58:55;;;;;;;6.23;5.13;;;;;;;18.02;45.58;96510.94;4999428;28;20874;-71
2023/05/30 07:01:21;;;;;;;9.93;6.20;;;;;;;18.25;45.33;96502.16;5004160;28;20379;-69
2023/05/30 07:03:46;;;;;;;6.83;5.37;;;;;;;17.87;46.03;96507.59;4993123;28;20195;-71
2023/05/30 07:06:12;;;;;;;11.60;5.50;;;;;;;18.39;46.48;96507.31;4997800;28;20194;-69
2023/05/30 07:08:38;;;;;;;6.90;4.90;;;;;;;18.25;45.41;96498.66;5012624;28;20184;-70
2023/05/30 07:11:03;;;;;;;8.37;5.83;;;;;;;18.03;46.32;96507.34;5008653;28;20172;-68
2023/05/30 07:13:29;;;;;;;6.40;5.70;;;;;;;18.17;46.15;96505.38;4998404;28;20180;-67
2023/05/30 07:15:55;;;;;;;9.90;6.90;;;;;;;18.57;45.49;96504.28;5006572;28;20248;-68
2023/05/30 07:18:20;;;;;;;8.03;5.70;;;;;;;18.64;44.74;96500.19;5008639;28;20212;-69
2023/05/30 07:20:45;;;;;;;9.00;5.87;;;;;;;18.32;45.52;96508.72;5008480;28;20199;-68
2023/05/30 07:23:11;;;;;;;11.53;7.70;;;;;;;18.89;44.65;96501.03;5008059;28;20652;-70
2023/05/30 07:25:36;;;;;;;7.00;5.00;;;;;;;19.98;43.65;96497.91;5008281;28;20290;-70
2023/05/30 07:28:02;;;;;;;9.00;5.30;;;;;;;20.36;42.64;96493.94;5007086;28;20290;-69
2023/05/30 07:30:27;;;;;;;13.07;6.00;;;;;;;20.57;41.88;96491.38;5009038;28;20657;-68
2023/05/30 07:32:52;;;;;;;11.20;6.20;;;;;;;20.15;40.86;96499.19;5010658;28;20176;-70
2023/05/30 07:35:18;;;;;;;30.47;6.60;;;;;;;19.74;41.85;96503.38;5010147;28;20544;-68
2023/05/30 07:37:43;;;;;;;6.93;5.27;;;;;;;19.53;42.60;96496.06;5009417;28;20196;-69
2023/05/30 07:40:09;;;;;;;9.07;5.50;;;;;;;20.05;42.75;96491.94;5008392;28;20180;-68
2023/05/30 07:42:36;;;;;;;12.43;5.53;;;;;;;19.66;41.90;96499.47;5003091;28;20194;-70
2023/05/30 07:45:02;;;;;;;6.17;5.40;;;;;;;19.69;41.92;96494.91;5008324;28;20239;-69
2023/05/30 07:47:28;;;;;;;14.00;6.70;;;;;;;19.67;41.98;96493.16;5008235;28;20442;-69
2023/05/30 07:49:53;;;;;;;8.90;6.10;;;;;;;19.94;41.74;96489.31;4999213;28;21157;-68
2023/05/30 07:52:19;;;;;;;7.83;5.63;;;;;;;19.89;42.01;96496.84;5008720;28;20244;-67
2023/05/30 07:54:44;;;;;;;8.40;6.10;;;;;;;20.28;41.28;96487.41;5008297;28;20171;-69
2023/05/30 07:57:12;;;;;;;15.53;5.53;;;;;;;19.82;41.41;96484.97;5007836;28;20192;-69
2023/05/30 07:59:40;;;;;;;7.40;5.50;;;;;;;19.57;42.40;96494.00;5008338;28;20180;-70
2023/05/30 08:02:06;;;;;;;8.97;5.20;;;;;;;19.97;41.69;96490.88;5000836;28;20443;-70
2023/05/30 08:04:31;;;;;;;9.50;5.20;;;;;;;20.16;41.12;96492.91;5004113;28;20510;-70
2023/05/30 08:06:56;;;;;;;8.50;5.40;;;;;;;20.37;40.90;96490.31;5006355;28;20366;-69
2023/05/30 08:09:22;;;;;;;7.70;5.53;;;;;;;19.85;41.09;96487.38;5006666;28;20234;-69
2023/05/30 08:11:47;;;;;;;5.93;5.17;;;;;;;20.23;40.58;96488.78;5007815;28;20903;-69
2023/05/30 08:14:13;;;;;;;7.87;5.57;;;;;;;19.90;40.83;96495.00;5008476;28;20367;-71
2023/05/30 08:16:39;;;;;;;6.10;5.20;;;;;;;19.81;41.48;96491.25;5007103;28;20200;-71
2023/05/30 08:19:04;;;;;;;14.13;5.20;;;;;;;19.84;41.91;96486.56;4992239;28;20211;-70
2023/05/30 08:21:32;;;;;;;6.20;5.60;;;;;;;19.91;41.16;96486.88;5008079;28;20262;-68
2023/05/30 08:23:58;;;;;;;9.43;5.93;;;;;;;20.16;41.22;96491.09;5007376;28;20647;-70
2023/05/30 08:26:24;;;;;;;8.43;5.53;;;;;;;19.92;41.98;96490.41;5006881;28;20419;-70
2023/05/30 08:28:51;;;;;;;8.87;6.17;;;;;;;19.90;42.13;96497.69;5003733;28;20245;-70
2023/05/30 08:31:18;;;;;;;7.50;5.67;;;;;;;20.36;41.38;96493.94;4994618;28;21250;-69
2023/05/30 08:33:45;;;;;;;8.20;5.63;;;;;;;20.34;41.33;96504.75;5007163;28;20894;-70
2023/05/30 08:36:10;;;;;;;10.03;6.50;;;;;;;20.75;40.47;96500.50;5002636;28;20446;-70
2023/05/30 08:38:36;;;;;;;7.27;5.60;;;;;;;20.60;40.60;96501.78;4995154;28;20462;-71
2023/05/30 08:41:01;;;;;;;10.20;6.27;;;;;;;20.46;39.79;96495.75;5007419;28;20180;-70
2023/05/30 08:43:27;;;;;;;6.80;5.43;;;;;;;19.92;41.17;96501.91;5007308;28;20176;-69
2023/05/30 08:45:55;;;;;;;9.67;5.30;;;;;;;20.36;40.89;96505.44;5007286;28;20183;-68
2023/05/30 08:48:23;;;;;;;6.63;5.40;;;;;;;20.15;41.41;96493.88;4998219;28;20236;-72
2023/05/30 08:50:51;;;;;;;12.20;6.43;;;;;;;20.77;40.76;96487.91;4999469;28;20514;-69
2023/05/30 08:53:25;;;;;;;7.77;4.90;;;;;;;21.08;39.27;96496.84;5030614;28;20416;-70
2023/05/30 08:56:14;;;;;;;10.60;6.07;;;;;;;20.73;40.15;96495.28;5007183;28;20515;-71
2023/05/30 08:58:43;;;;;;;9.83;5.70;;;;;;;21.20;39.67;96488.75;4999659;28;20475;-70
2023/05/30 09:01:10;;;;;;;7.33;4.70;;;;;;;21.75;38.14;96484.00;5006335;28;20494;-70
2023/05/30 09:03:37;;;;;;;9.80;4.73;;;;;;;21.02;39.46;96499.16;5006722;28;20469;-70
2023/05/30 09:06:04;;;;;;;14.63;8.10;;;;;;;20.63;40.83;96496.19;5004649;28;20477;-70
2023/05/30 09:08:30;;;;;;;13.47;6.10;;;;;;;20.76;39.36;96493.34;4996044;28;21094;-68
2023/05/30 09:10:56;;;;;;;11.20;6.07;;;;;;;20.49;39.79;96495.47;5003828;28;20423;-67
2023/05/30 09:13:22;;;;;;;9.67;5.60;;;;;;;21.07;38.41;96492.47;5006398;28;20475;-68
2023/05/30 09:15:47;;;;;;;10.40;5.60;;;;;;;21.06;38.72;96487.25;5003649;28;20235;-67
2023/05/30 09:18:13;;;;;;;7.00;5.50;;;;;;;21.20;38.95;96500.28;5005753;28;20200;-66
2023/05/30 09:20:39;;;;;;;8.43;5.93;;;;;;;21.22;38.96;96495.66;5006546;28;20233;-66
2023/05/30 09:23:06;;;;;;;9.97;5.70;;;;;;;21.97;37.50;96488.34;5006808;28;20341;-68
2023/05/30 09:25:46;;;;;;;14.40;5.90;;;;;;;21.86;38.15;96494.59;5006309;28;20557;-66
2023/05/30 09:28:13;;;;;;;8.37;5.60;;;;;;;21.34;38.44;96497.28;5007315;28;20439;-68
2023/05/30 09:30:55;;;;;;;10.20;5.47;;;;;;;21.54;37.27;96497.41;5006359;28;20418;-66
2023/05/30 09:33:21;;;;;;;6.10;5.50;;;;;;;21.23;38.36;96494.66;5007390;28;20415;-68
2023/05/30 09:35:53;;;;;;;15.67;5.53;;;;;;;21.15;38.83;96499.84;5006486;28;20422;-66
2023/05/30 09:38:24;;;;;;;6.67;4.90;;;;;;;21.08;38.15;96496.00;5006932;28;20427;-67
2023/05/30 09:41:11;;;;;;;8.10;4.80;;;;;;;21.24;37.93;96492.88;5007027;28;20441;-68
2023/05/30 09:43:38;;;;;;;13.33;7.87;;;;;;;21.64;38.12;96490.31;5007416;28;20466;-67
2023/05/30 09:46:05;;;;;;;6.37;5.10;;;;;;;21.80;37.13;96491.63;5006288;28;20418;-67
2023/05/30 09:48:31;;;;;;;7.43;5.27;;;;;;;21.65;36.89;96499.16;5006392;28;20431;-67
2023/05/30 09:51:01;;;;;;;8.83;5.40;;;;;;;21.29;36.78;96490.66;5005484;28;20627;-66
2023/05/30 09:53:32;;;;;;;6.43;5.10;;;;;;;20.94;37.53;96498.00;5004939;28;20450;-67
2023/05/30 09:55:58;;;;;;;6.20;5.03;;;;;;;20.89;38.82;96496.69;5004817;28;20443;-66
2023/05/30 09:58:24;;;;;;;10.20;5.23;;;;;;;21.19;37.63;96493.25;5004831;28;20458;-67
2023/05/30 10:00:53;;;;;;;5.40;4.40;;;;;;;21.50;37.58;96482.66;5005191;28;20509;-66
2023/05/30 10:03:43;;;;;;;9.53;5.60;;;;;;;21.60;37.52;96485.38;4996705;28;20265;-67
2023/05/30 10:06:15;;;;;;;6.60;5.60;;;;;;;21.79;36.87;96485.44;5005061;28;20442;-68
2023/05/30 10:08:48;;;;;;;4.93;4.40;;;;;;;22.11;35.62;96490.63;5004787;28;20458;-69
2023/05/30 10:11:13;;;;;;;6.50;4.70;;;;;;;21.46;34.87;96491.91;5004365;28;20449;-69
2023/05/30 10:13:39;;;;;;;5.97;4.97;;;;;;;21.63;36.32;96485.09;5001554;28;21205;-69
2023/05/30 10:16:13;;;;;;;6.57;5.23;;;;;;;21.67;36.94;96476.69;5004033;28;20199;-71
2023/05/30 10:18:45;;;;;;;10.20;5.23;;;;;;;21.46;36.73;96478.56;5010785;28;21243;-71
2023/05/30 10:21:14;;;;;;;26.70;6.80;;;;;;;21.75;36.89;96482.19;5005625;28;20461;-70
2023/05/30 10:23:41;;;;;;;11.77;5.70;;;;;;;21.71;37.27;96467.44;5005259;28;20466;-70
2023/05/30 10:26:09;;;;;;;6.23;5.23;;;;;;;21.91;37.71;96464.81;5005126;28;21223;-70
2023/05/30 10:28:36;;;;;;;6.90;6.00;;;;;;;21.90;37.04;96474.66;5005758;28;20451;-71
2023/05/30 10:31:03;;;;;;;10.63;5.20;;;;;;;22.05;36.82;96464.44;5004889;28;20473;-69
2023/05/30 10:33:35;;;;;;;7.53;4.70;;;;;;;21.71;37.27;96474.59;5004147;28;20935;-71
2023/05/30 10:36:01;;;;;;;7.80;5.13;;;;;;;21.72;37.22;96469.09;5001332;28;20851;-72
2023/05/30 10:38:29;;;;;;;9.43;5.87;;;;;;;21.96;37.00;96460.75;5005739;28;20458;-71
2023/05/30 10:41:12;;;;;;;7.37;5.37;;;;;;;21.58;37.83;96464.13;5005143;28;20457;-69
2023/05/30 10:43:46;;;;;;;5.80;5.10;;;;;;;22.04;37.63;96465.44;5005064;28;20500;-66
2023/05/30 10:46:26;;;;;;;6.90;5.17;;;;;;;22.01;36.28;96463.00;4995495;28;20543;-68
2023/05/30 10:49:03;;;;;;;6.50;4.57;;;;;;;22.25;35.91;96462.66;4997503;28;20509;-67
2023/05/30 10:51:29;;;;;;;6.40;4.83;;;;;;;22.04;36.50;96457.41;5004429;28;20438;-66
2023/05/30 10:53:57;;;;;;;7.93;5.07;;;;;;;22.40;36.59;96452.44;5004962;28;20415;-68
2023/05/30 10:56:25;;;;;;;6.60;4.67;;;;;;;21.88;36.37;96451.75;4997095;28;20203;-68
2023/05/30 10:58:53;;;;;;;6.70;5.07;;;;;;;22.06;35.82;96451.91;5002783;28;20465;-67
2023/05/30 11:01:27;;;;;;;9.83;5.10;;;;;;;22.08;35.50;96452.63;5002042;28;20435;-67
2023/05/30 11:04:06;;;;;;;6.80;4.40;;;;;;;22.03;36.12;96445.00;5003649;28;20463;-67
2023/05/30 11:06:46;;;;;;;7.97;4.50;;;;;;;22.41;36.31;96444.25;5004504;28;21071;-67
2023/05/30 11:09:16;;;;;;;8.17;4.93;;;;;;;22.46;35.76;96437.66;5005334;28;20430;-68
2023/05/30 11:11:43;;;;;;;6.90;5.07;;;;;;;22.43;35.55;96443.28;4998632;28;20469;-68
2023/05/30 11:14:10;;;;;;;6.93;5.20;;;;;;;22.00;36.40;96458.66;5004927;28;20418;-67
2023/05/30 11:16:54;;;;;;;7.50;4.70;;;;;;;21.93;36.42;96436.13;5005102;28;20439;-68
2023/05/30 11:19:40;;;;;;;8.30;5.23;;;;;;;22.08;36.26;96442.78;5005113;28;20430;-68
2023/05/30 11:22:15;;;;;;;13.17;8.27;;;;;;;22.07;36.23;96434.91;5001998;28;20439;-68
2023/05/30 11:24:41;;;;;;;9.00;4.70;;;;;;;22.04;35.64;96436.03;5005155;28;20446;-68
2023/05/30 11:27:12;;;;;;;5.10;3.83;;;;;;;22.33;34.79;96441.44;5005180;28;21010;-66
2023/05/30 11:29:43;;;;;;;5.40;4.27;;;;;;;22.25;35.68;96437.75;5005034;28;20176;-68
2023/05/30 11:32:10;;;;;;;11.97;5.17;;;;;;;22.41;35.64;96432.72;5005359;28;20809;-67
2023/05/30 11:34:36;;;;;;;11.53;4.97;;;;;;;22.41;34.69;96430.88;5004684;28;20488;-68